createdAt,value
2017-10-16T00:00:34.048Z,10.48
2017-10-16T00:01:34.081Z,10.48
2017-10-16T00:02:34.115Z,10.45
2017-10-16T00:03:34.146Z,10.53
2017-10-16T00:04:34.179Z,10.51
2017-10-16T00:05:34.214Z,10.44
2017-10-16T00:06:34.248Z,10.45
2017-10-16T00:07:34.279Z,10.33
2017-10-16T00:08:34.312Z,10.26
2017-10-16T00:09:34.346Z,10.33
2017-10-16T00:10:34.377Z,10.27
2017-10-16T00:11:34.411Z,10.30
2017-10-16T00:12:34.444Z,10.26
2017-10-16T00:13:34.476Z,10.25
2017-10-16T00:14:34.509Z,10.15
2017-10-16T00:15:34.543Z,10.29
2017-10-16T00:16:34.577Z,10.34
2017-10-16T00:17:34.608Z,10.34
2017-10-16T00:18:34.642Z,10.15
2017-10-16T00:19:34.676Z,10.29
2017-10-16T00:20:34.708Z,10.26
2017-10-16T00:21:34.740Z,10.22
2017-10-16T00:22:34.774Z,10.26
2017-10-16T00:23:34.806Z,10.26
2017-10-16T00:24:34.839Z,10.22
2017-10-16T00:25:34.875Z,10.22
2017-10-16T00:26:34.904Z,10.25
2017-10-16T00:27:34.937Z,10.14
2017-10-16T00:28:34.970Z,10.18
2017-10-16T00:29:35.002Z,10.26
2017-10-16T00:30:35.036Z,10.07
2017-10-16T00:31:35.070Z,10.07
2017-10-16T00:32:35.101Z,10.14
2017-10-16T00:33:35.135Z,10.12
2017-10-16T00:34:35.167Z,10.07
2017-10-16T00:35:35.199Z,10.11
2017-10-16T00:36:35.232Z,10.08
2017-10-16T00:37:35.265Z,10.04
2017-10-16T00:38:35.298Z,10.11
2017-10-16T00:39:35.331Z,10.02
2017-10-16T00:40:35.363Z,9.94
2017-10-16T00:41:35.395Z,10.01
2017-10-16T00:42:35.428Z,10.05
2017-10-16T00:43:35.462Z,10.07
2017-10-16T00:44:35.495Z,9.96
2017-10-16T00:45:35.524Z,10.05
2017-10-16T00:46:35.560Z,10.07
2017-10-16T00:47:35.591Z,9.97
2017-10-16T00:48:35.623Z,9.93
2017-10-16T00:49:35.657Z,9.78
2017-10-16T00:50:35.689Z,9.86
2017-10-16T00:51:35.722Z,9.76
2017-10-16T00:52:35.755Z,9.78
2017-10-16T00:53:35.787Z,9.87
2017-10-16T00:54:35.820Z,9.84
2017-10-16T00:55:35.852Z,9.86
2017-10-16T00:56:35.885Z,9.86
2017-10-16T00:57:35.916Z,9.94
2017-10-16T00:58:35.950Z,10.01
2017-10-16T00:59:35.981Z,10.09
2017-10-16T01:00:36.016Z,10.07
2017-10-16T01:01:36.047Z,10.05
2017-10-16T01:02:36.080Z,9.99
2017-10-16T01:03:36.113Z,10.09
2017-10-16T01:04:36.146Z,10.07
2017-10-16T01:05:36.178Z,10.07
2017-10-16T01:06:36.210Z,10.07
2017-10-16T01:07:36.244Z,10.18
2017-10-16T01:08:36.277Z,10.09
2017-10-16T01:09:36.307Z,10.11
2017-10-16T01:10:36.340Z,10.08
2017-10-16T01:11:36.373Z,10.04
2017-10-16T01:12:36.406Z,10.02
2017-10-16T01:13:36.437Z,9.94
2017-10-16T01:14:36.470Z,10.08
2017-10-16T01:15:36.504Z,9.90
2017-10-16T01:16:36.543Z,9.93
2017-10-16T01:17:36.568Z,9.93
2017-10-16T01:18:36.600Z,9.90
2017-10-16T01:19:36.633Z,9.87
2017-10-16T01:20:36.666Z,9.83
2017-10-16T01:21:36.697Z,9.94
2017-10-16T01:22:36.731Z,9.91
2017-10-16T01:23:36.764Z,9.94
2017-10-16T01:24:36.795Z,9.86
2017-10-16T01:25:36.829Z,9.83
2017-10-16T01:26:36.861Z,9.94
2017-10-16T01:27:36.892Z,9.87
2017-10-16T01:28:36.925Z,9.84
2017-10-16T01:29:36.956Z,9.93
2017-10-16T01:30:36.991Z,9.94
2017-10-16T01:31:37.022Z,9.90
2017-10-16T01:32:37.060Z,9.78
2017-10-16T01:33:37.087Z,9.81
2017-10-16T01:34:37.119Z,9.84
2017-10-16T01:35:37.152Z,9.84
2017-10-16T01:36:37.186Z,9.78
2017-10-16T01:37:37.217Z,9.84
2017-10-16T01:38:37.249Z,9.90
2017-10-16T01:39:37.287Z,9.84
2017-10-16T01:40:37.315Z,9.89
2017-10-16T01:41:37.347Z,9.89
2017-10-16T01:42:37.380Z,9.87
2017-10-16T01:43:37.411Z,9.86
2017-10-16T01:44:37.444Z,9.96
2017-10-16T01:45:37.476Z,10.02
2017-10-16T01:46:37.509Z,10.01
2017-10-16T01:47:37.541Z,10.08
2017-10-16T01:48:37.574Z,10.01
2017-10-16T01:49:37.607Z,10.09
2017-10-16T01:50:37.639Z,10.11
2017-10-16T01:51:37.671Z,10.07
2017-10-16T01:52:37.705Z,10.08
2017-10-16T01:53:37.735Z,10.04
2017-10-16T01:54:37.768Z,10.12
2017-10-16T01:55:37.801Z,10.11
2017-10-16T01:56:37.835Z,9.97
2017-10-16T01:57:37.866Z,9.94
2017-10-16T01:58:37.904Z,9.91
2017-10-16T01:59:37.932Z,9.89
2017-10-16T02:00:37.964Z,9.86
2017-10-16T02:01:37.995Z,9.79
2017-10-16T02:02:38.027Z,9.81
2017-10-16T02:03:38.060Z,9.76
2017-10-16T02:04:38.094Z,9.71
2017-10-16T02:05:38.124Z,9.76
2017-10-16T02:06:38.157Z,9.75
2017-10-16T02:07:38.190Z,9.79
2017-10-16T02:08:38.223Z,9.79
2017-10-16T02:09:38.254Z,9.89
2017-10-16T02:10:38.291Z,9.93
2017-10-16T02:11:38.319Z,9.78
2017-10-16T02:12:38.352Z,9.79
2017-10-16T02:13:38.383Z,9.93
2017-10-16T02:14:38.417Z,9.87
2017-10-16T02:15:38.448Z,9.97
2017-10-16T02:16:38.482Z,9.96
2017-10-16T02:17:38.514Z,9.99
2017-10-16T02:18:38.546Z,9.93
2017-10-16T02:19:38.578Z,9.99
2017-10-16T02:20:38.612Z,9.89
2017-10-16T02:21:38.657Z,9.97
2017-10-16T02:22:38.675Z,9.99
2017-10-16T02:23:38.707Z,9.99
2017-10-16T02:24:38.740Z,9.99
2017-10-16T02:25:38.772Z,9.90
2017-10-16T02:26:38.805Z,9.93
2017-10-16T02:27:38.839Z,9.96
2017-10-16T02:28:38.872Z,9.94
2017-10-16T02:29:38.901Z,9.94
2017-10-16T02:30:38.935Z,9.86
2017-10-16T02:31:38.972Z,9.76
2017-10-16T02:32:39.003Z,9.65
2017-10-16T02:33:39.030Z,9.64
2017-10-16T02:34:39.064Z,9.60
2017-10-16T02:35:39.097Z,9.64
2017-10-16T02:36:39.131Z,9.57
2017-10-16T02:37:39.161Z,9.54
2017-10-16T02:38:39.193Z,9.65
2017-10-16T02:39:39.226Z,9.54
2017-10-16T02:40:39.258Z,9.56
2017-10-16T02:41:39.289Z,9.56
2017-10-16T02:42:39.323Z,9.56
2017-10-16T02:43:39.357Z,9.57
2017-10-16T02:44:39.388Z,9.50
2017-10-16T02:45:39.420Z,9.57
2017-10-16T02:46:39.451Z,9.69
2017-10-16T02:47:39.485Z,9.68
2017-10-16T02:48:39.518Z,9.71
2017-10-16T02:49:39.548Z,9.68
2017-10-16T02:50:39.583Z,9.78
2017-10-16T02:51:39.614Z,9.75
2017-10-16T02:52:39.647Z,9.79
2017-10-16T02:53:39.678Z,9.76
2017-10-16T02:54:39.710Z,9.87
2017-10-16T02:55:39.742Z,9.81
2017-10-16T02:56:39.775Z,9.86
2017-10-16T02:57:39.807Z,9.86
2017-10-16T02:58:39.841Z,9.93
2017-10-16T02:59:39.873Z,9.97
2017-10-16T03:00:39.905Z,9.96
2017-10-16T03:01:39.936Z,9.93
2017-10-16T03:02:39.968Z,9.96
2017-10-16T03:03:40.005Z,9.94
2017-10-16T03:04:40.034Z,9.94
2017-10-16T03:05:40.066Z,9.89
2017-10-16T03:06:40.100Z,9.90
2017-10-16T03:07:40.135Z,9.87
2017-10-16T03:08:40.163Z,9.81
2017-10-16T03:09:40.196Z,9.89
2017-10-16T03:10:40.229Z,9.86
2017-10-16T03:11:40.259Z,9.83
2017-10-16T03:12:40.292Z,9.83
2017-10-16T03:13:40.323Z,9.83
2017-10-16T03:14:40.357Z,9.86
2017-10-16T03:15:40.388Z,9.84
2017-10-16T03:16:40.425Z,9.91
2017-10-16T03:17:40.453Z,9.87
2017-10-16T03:18:40.486Z,9.93
2017-10-16T03:19:40.527Z,9.94
2017-10-16T03:20:40.549Z,9.93
2017-10-16T03:21:40.582Z,9.96
2017-10-16T03:22:40.617Z,9.96
2017-10-16T03:23:40.649Z,9.94
2017-10-16T03:24:40.679Z,9.78
2017-10-16T03:25:40.711Z,9.72
2017-10-16T03:26:40.743Z,9.64
2017-10-16T03:27:40.781Z,9.66
2017-10-16T03:28:40.808Z,9.69
2017-10-16T03:29:40.841Z,9.54
2017-10-16T03:30:40.874Z,9.57
2017-10-16T03:31:40.906Z,9.57
2017-10-16T03:32:40.936Z,9.60
2017-10-16T03:33:40.968Z,9.66
2017-10-16T03:34:41.001Z,9.65
2017-10-16T03:35:41.033Z,9.66
2017-10-16T03:36:41.066Z,9.71
2017-10-16T03:37:41.098Z,9.81
2017-10-16T03:38:41.130Z,9.86
2017-10-16T03:39:41.163Z,9.83
2017-10-16T03:40:41.212Z,9.86
2017-10-16T03:41:41.225Z,9.81
2017-10-16T03:42:41.259Z,9.94
2017-10-16T03:43:41.291Z,10.07
2017-10-16T03:44:41.324Z,10.01
2017-10-16T03:45:41.356Z,10.12
2017-10-16T03:46:41.388Z,10.09
2017-10-16T03:47:41.424Z,10.02
2017-10-16T03:48:41.453Z,10.07
2017-10-16T03:49:41.485Z,10.09
2017-10-16T03:50:41.517Z,10.12
2017-10-16T03:51:41.549Z,10.11
2017-10-16T03:52:41.582Z,10.05
2017-10-16T03:53:41.613Z,10.11
2017-10-16T03:54:41.646Z,10.08
2017-10-16T03:55:41.679Z,10.02
2017-10-16T03:56:41.711Z,10.11
2017-10-16T03:57:41.742Z,10.05
2017-10-16T03:58:41.776Z,10.04
2017-10-16T03:59:41.808Z,10.08
2017-10-16T04:00:41.845Z,10.08
2017-10-16T04:01:41.872Z,10.02
2017-10-16T04:02:41.904Z,10.05
2017-10-16T04:03:41.938Z,10.09
2017-10-16T04:04:41.969Z,10.09
2017-10-16T04:05:42.002Z,10.12
2017-10-16T04:06:42.036Z,10.20
2017-10-16T04:07:42.066Z,10.22
2017-10-16T04:08:42.098Z,10.15
2017-10-16T04:09:42.130Z,10.17
2017-10-16T04:10:42.163Z,10.11
2017-10-16T04:11:42.195Z,10.14
2017-10-16T04:12:42.229Z,10.07
2017-10-16T04:13:42.260Z,10.14
2017-10-16T04:14:42.291Z,10.15
2017-10-16T04:15:42.324Z,10.07
2017-10-16T04:16:42.357Z,10.08
2017-10-16T04:17:42.389Z,9.96
2017-10-16T04:18:42.423Z,9.93
2017-10-16T04:19:42.453Z,9.90
2017-10-16T04:20:42.485Z,9.79
2017-10-16T04:21:42.517Z,9.79
2017-10-16T04:22:42.550Z,9.76
2017-10-16T04:23:42.581Z,9.78
2017-10-16T04:24:42.614Z,9.83
2017-10-16T04:25:42.647Z,9.90
2017-10-16T04:26:42.689Z,9.86
2017-10-16T04:27:42.711Z,9.83
2017-10-16T04:28:42.743Z,9.89
2017-10-16T04:29:42.777Z,9.79
2017-10-16T04:30:42.807Z,9.81
2017-10-16T04:31:42.840Z,9.83
2017-10-16T04:32:42.872Z,9.81
2017-10-16T04:33:42.904Z,9.83
2017-10-16T04:34:42.937Z,9.84
2017-10-16T04:35:42.970Z,9.87
2017-10-16T04:36:43.001Z,9.87
2017-10-16T04:37:43.033Z,9.90
2017-10-16T04:38:43.065Z,9.99
2017-10-16T04:39:43.098Z,9.96
2017-10-16T04:40:43.135Z,9.97
2017-10-16T04:41:43.162Z,9.97
2017-10-16T04:42:43.194Z,9.89
2017-10-16T04:43:43.226Z,9.89
2017-10-16T04:44:43.259Z,9.97
2017-10-16T04:45:43.291Z,9.89
2017-10-16T04:46:43.323Z,9.91
2017-10-16T04:47:43.357Z,9.97
2017-10-16T04:48:43.395Z,9.93
2017-10-16T04:49:43.427Z,9.91
2017-10-16T04:50:43.452Z,9.93
2017-10-16T04:51:43.483Z,9.94
2017-10-16T04:52:43.516Z,9.96
2017-10-16T04:53:43.553Z,10.01
2017-10-16T04:54:43.588Z,9.97
2017-10-16T04:55:43.613Z,9.86
2017-10-16T04:56:43.646Z,9.94
2017-10-16T04:57:43.678Z,9.96
2017-10-16T04:58:43.709Z,9.93
2017-10-16T04:59:43.742Z,9.91
2017-10-16T05:00:43.774Z,9.90
2017-10-16T05:01:43.806Z,9.97
2017-10-16T05:02:43.844Z,9.94
2017-10-16T05:03:43.870Z,9.86
2017-10-16T05:04:43.903Z,9.86
2017-10-16T05:05:43.935Z,9.89
2017-10-16T05:06:43.972Z,9.78
2017-10-16T05:07:43.999Z,9.91
2017-10-16T05:08:44.032Z,9.84
2017-10-16T05:09:44.065Z,9.83
2017-10-16T05:10:44.097Z,9.89
2017-10-16T05:11:44.134Z,9.97
2017-10-16T05:12:44.160Z,9.89
2017-10-16T05:13:44.190Z,9.93
2017-10-16T05:14:44.224Z,9.86
2017-10-16T05:15:44.256Z,9.83
2017-10-16T05:16:44.288Z,9.87
2017-10-16T05:17:44.320Z,9.86
2017-10-16T05:18:44.353Z,9.86
2017-10-16T05:19:44.391Z,9.91
2017-10-16T05:20:44.416Z,9.96
2017-10-16T05:21:44.448Z,9.93
2017-10-16T05:22:44.481Z,9.86
2017-10-16T05:23:44.514Z,9.90
2017-10-16T05:24:44.547Z,9.84
2017-10-16T05:25:44.578Z,9.94
2017-10-16T05:26:44.609Z,9.86
2017-10-16T05:27:44.645Z,9.78
2017-10-16T05:28:44.675Z,9.86
2017-10-16T05:29:44.706Z,9.89
2017-10-16T05:30:44.739Z,9.79
2017-10-16T05:31:44.771Z,9.81
2017-10-16T05:32:44.804Z,9.86
2017-10-16T05:33:44.834Z,9.90
2017-10-16T05:34:44.868Z,9.76
2017-10-16T05:35:44.900Z,9.87
2017-10-16T05:36:44.932Z,9.83
2017-10-16T05:37:44.963Z,9.65
2017-10-16T05:38:44.997Z,9.66
2017-10-16T05:39:45.029Z,9.75
2017-10-16T05:40:45.060Z,9.78
2017-10-16T05:41:45.093Z,9.71
2017-10-16T05:42:45.124Z,9.72
2017-10-16T05:43:45.157Z,9.74
2017-10-16T05:44:45.191Z,9.83
2017-10-16T05:45:45.221Z,9.72
2017-10-16T05:46:45.253Z,9.69
2017-10-16T05:47:45.285Z,9.71
2017-10-16T05:48:45.426Z,9.74
2017-10-16T05:49:45.351Z,9.72
2017-10-16T05:50:45.382Z,9.81
2017-10-16T05:51:45.414Z,9.84
2017-10-16T05:52:45.446Z,9.76
2017-10-16T05:53:45.478Z,9.76
2017-10-16T05:54:45.511Z,9.76
2017-10-16T05:55:45.543Z,9.74
2017-10-16T05:56:45.575Z,9.66
2017-10-16T05:57:45.605Z,9.61
2017-10-16T05:58:45.643Z,9.79
2017-10-16T05:59:45.671Z,9.81
2017-10-16T06:00:45.702Z,9.83
2017-10-16T06:01:45.735Z,9.78
2017-10-16T06:02:45.768Z,9.86
2017-10-16T06:03:45.800Z,9.81
2017-10-16T06:04:45.833Z,9.81
2017-10-16T06:05:45.863Z,9.86
2017-10-16T06:06:45.896Z,9.83
2017-10-16T06:07:45.928Z,9.93
2017-10-16T06:08:45.962Z,9.97
2017-10-16T06:09:45.993Z,9.90
2017-10-16T06:10:46.025Z,9.97
2017-10-16T06:11:46.058Z,10.08
2017-10-16T06:12:46.090Z,9.97
2017-10-16T06:13:46.122Z,10.02
2017-10-16T06:14:46.154Z,10.02
2017-10-16T06:15:46.186Z,9.99
2017-10-16T06:16:46.219Z,10.07
2017-10-16T06:17:46.252Z,10.09
2017-10-16T06:18:46.284Z,10.05
2017-10-16T06:19:46.316Z,10.11
2017-10-16T06:20:46.353Z,10.22
2017-10-16T06:21:46.380Z,10.15
2017-10-16T06:22:46.414Z,10.27
2017-10-16T06:23:46.446Z,10.20
2017-10-16T06:24:46.479Z,10.20
2017-10-16T06:25:46.514Z,10.30
2017-10-16T06:26:46.543Z,10.33
2017-10-16T06:27:46.585Z,10.29
2017-10-16T06:28:46.608Z,10.34
2017-10-16T06:29:46.639Z,10.40
2017-10-16T06:30:46.672Z,10.52
2017-10-16T06:31:46.705Z,10.45
2017-10-16T06:32:46.738Z,10.45
2017-10-16T06:33:46.768Z,10.51
2017-10-16T06:34:46.803Z,10.56
2017-10-16T06:35:46.835Z,10.60
2017-10-16T06:36:46.868Z,10.55
2017-10-16T06:37:46.905Z,10.60
2017-10-16T06:38:46.934Z,10.64
2017-10-16T06:39:46.967Z,10.68
2017-10-16T06:40:46.999Z,10.63
2017-10-16T06:41:47.030Z,10.66
2017-10-16T06:42:47.063Z,10.73
2017-10-16T06:43:47.097Z,10.74
2017-10-16T06:44:47.130Z,10.79
2017-10-16T06:45:47.162Z,10.92
2017-10-16T06:46:47.195Z,10.97
2017-10-16T06:47:47.227Z,11.07
2017-10-16T06:48:47.260Z,11.11
2017-10-16T06:49:47.293Z,11.11
2017-10-16T06:50:47.327Z,11.21
2017-10-16T06:51:47.358Z,11.25
2017-10-16T06:52:47.392Z,11.22
2017-10-16T06:53:47.424Z,11.29
2017-10-16T06:54:47.456Z,11.36
2017-10-16T06:55:47.491Z,11.40
2017-10-16T06:56:47.525Z,11.40
2017-10-16T06:57:47.557Z,11.57
2017-10-16T06:58:47.591Z,11.54
2017-10-16T06:59:47.625Z,11.65
2017-10-16T07:00:47.658Z,11.75
2017-10-16T07:01:47.691Z,11.76
2017-10-16T07:02:47.724Z,11.85
2017-10-16T07:03:47.758Z,11.88
2017-10-16T07:04:47.793Z,11.96
2017-10-16T07:05:47.824Z,11.95
2017-10-16T07:06:47.866Z,12.01
2017-10-16T07:07:47.892Z,12.09
2017-10-16T07:08:47.927Z,12.21
2017-10-16T07:09:47.960Z,12.28
2017-10-16T07:10:47.997Z,12.31
2017-10-16T07:11:48.030Z,12.29
2017-10-16T07:12:48.062Z,12.38
2017-10-16T07:13:48.096Z,12.50
2017-10-16T07:14:48.130Z,12.53
2017-10-16T07:15:48.164Z,12.52
2017-10-16T07:16:48.200Z,12.60
2017-10-16T07:17:48.232Z,12.79
2017-10-16T07:18:48.267Z,12.87
2017-10-16T07:19:48.302Z,12.90
2017-10-16T07:20:48.337Z,12.97
2017-10-16T07:21:48.370Z,12.95
2017-10-16T07:22:48.405Z,13.04
2017-10-16T07:23:48.441Z,13.14
2017-10-16T07:24:48.476Z,13.23
2017-10-16T07:25:48.511Z,13.36
2017-10-16T07:26:48.544Z,13.42
2017-10-16T07:27:48.581Z,13.54
2017-10-16T07:28:48.616Z,13.52
2017-10-16T07:29:48.651Z,13.59
2017-10-16T07:30:48.689Z,13.57
2017-10-16T07:31:48.721Z,13.62
2017-10-16T07:32:48.757Z,13.77
2017-10-16T07:33:48.794Z,13.70
2017-10-16T07:34:48.828Z,13.87
2017-10-16T07:35:48.865Z,13.97
2017-10-16T07:36:48.900Z,13.95
2017-10-16T07:37:48.936Z,14.36
2017-10-16T07:38:48.972Z,14.55
2017-10-16T07:39:49.008Z,14.73
2017-10-16T07:40:49.045Z,14.91
2017-10-16T07:41:49.080Z,15.07
2017-10-16T07:42:49.117Z,15.36
2017-10-16T07:43:49.153Z,16.21
2017-10-16T07:44:49.190Z,17.23
2017-10-16T07:45:49.225Z,18.66
2017-10-16T07:46:49.262Z,19.94
2017-10-16T07:47:49.301Z,21.12
2017-10-16T07:48:49.337Z,22.12
2017-10-16T07:49:49.375Z,22.70
2017-10-16T07:50:49.412Z,23.17
2017-10-16T07:51:49.451Z,23.66
2017-10-16T07:52:49.487Z,24.03
2017-10-16T07:53:49.525Z,24.28
2017-10-16T07:54:49.563Z,24.58
2017-10-16T07:55:49.601Z,24.81
2017-10-16T07:56:49.639Z,25.15
2017-10-16T07:57:49.678Z,25.55
2017-10-16T07:58:49.716Z,25.75
2017-10-16T07:59:49.755Z,25.97
2017-10-16T08:00:49.795Z,26.18
2017-10-16T08:01:49.833Z,26.29
2017-10-16T08:02:49.872Z,26.35
2017-10-16T08:03:49.912Z,26.43
2017-10-16T08:04:49.953Z,26.60
2017-10-16T08:05:49.990Z,26.82
2017-10-16T08:06:50.031Z,27.00
2017-10-16T08:07:50.071Z,27.19
2017-10-16T08:08:50.111Z,27.44
2017-10-16T08:09:50.150Z,27.57
2017-10-16T08:10:50.192Z,27.59
2017-10-16T08:11:50.232Z,27.78
2017-10-16T08:12:50.273Z,27.74
2017-10-16T08:13:50.314Z,27.88
2017-10-16T08:14:50.354Z,27.92
2017-10-16T08:15:50.394Z,27.77
2017-10-16T08:16:50.438Z,28.15
2017-10-16T08:17:50.478Z,28.51
2017-10-16T08:18:50.519Z,28.36
2017-10-16T08:19:50.561Z,28.74
2017-10-16T08:20:50.603Z,28.92
2017-10-16T08:21:50.644Z,28.93
2017-10-16T08:22:50.685Z,29.23
2017-10-16T08:23:50.730Z,29.41
2017-10-16T08:24:50.774Z,29.49
2017-10-16T08:25:50.813Z,29.63
2017-10-16T08:26:50.857Z,29.68
2017-10-16T08:27:50.906Z,29.85
2017-10-16T08:28:50.945Z,29.97
2017-10-16T08:29:50.986Z,30.38
2017-10-16T08:30:51.025Z,30.16
2017-10-16T08:31:51.069Z,30.35
2017-10-16T08:32:51.113Z,30.38
2017-10-16T08:33:51.154Z,30.43
2017-10-16T08:34:51.199Z,30.55
2017-10-16T08:35:51.249Z,30.86
2017-10-16T08:36:51.292Z,30.94
2017-10-16T08:37:51.335Z,31.04
2017-10-16T08:38:51.373Z,31.10
2017-10-16T08:39:51.417Z,31.02
2017-10-16T08:40:51.461Z,31.14
2017-10-16T08:41:51.505Z,30.97
2017-10-16T08:42:51.550Z,30.91
2017-10-16T08:43:51.595Z,31.10
2017-10-16T08:44:51.639Z,31.51
2017-10-16T08:45:51.684Z,31.63
2017-10-16T08:46:51.728Z,32.03
2017-10-16T08:47:51.774Z,31.92
2017-10-16T08:48:51.820Z,32.26
2017-10-16T08:49:51.865Z,32.59
2017-10-16T08:50:51.910Z,32.88
2017-10-16T08:51:51.956Z,33.09
2017-10-16T08:52:52.002Z,32.74
2017-10-16T08:53:52.047Z,32.44
2017-10-16T08:54:52.095Z,32.88
2017-10-16T08:55:52.139Z,33.19
2017-10-16T08:56:52.188Z,33.65
2017-10-16T08:57:52.239Z,33.71
2017-10-16T08:58:52.281Z,34.05
2017-10-16T08:59:52.328Z,34.06
2017-10-16T09:00:52.375Z,34.30
2017-10-16T09:01:52.422Z,34.61
2017-10-16T09:02:52.468Z,34.64
2017-10-16T09:03:52.518Z,34.84
2017-10-16T09:04:52.566Z,35.02
2017-10-16T09:05:52.635Z,34.88
2017-10-16T09:06:52.662Z,34.80
2017-10-16T09:07:52.712Z,34.65
2017-10-16T09:08:52.759Z,34.66
2017-10-16T09:09:52.808Z,34.88
2017-10-16T09:10:52.858Z,35.03
2017-10-16T09:11:52.907Z,34.97
2017-10-16T09:12:52.955Z,34.99
2017-10-16T09:13:53.008Z,34.77
2017-10-16T09:14:53.054Z,34.70
2017-10-16T09:15:53.105Z,34.75
2017-10-16T09:16:53.153Z,34.73
2017-10-16T09:17:53.204Z,34.69
2017-10-16T09:18:53.254Z,34.88
2017-10-16T09:19:53.303Z,35.10
2017-10-16T09:20:53.354Z,35.36
2017-10-16T09:21:53.404Z,35.53
2017-10-16T09:22:53.456Z,35.70
2017-10-16T09:23:53.507Z,36.16
2017-10-16T09:24:53.555Z,36.19
2017-10-16T09:25:53.607Z,36.20
2017-10-16T09:26:53.656Z,36.16
2017-10-16T09:27:53.707Z,36.20
2017-10-16T09:28:53.759Z,36.29
2017-10-16T09:29:53.809Z,36.53
2017-10-16T09:30:53.862Z,36.44
2017-10-16T09:31:53.912Z,36.62
2017-10-16T09:32:53.969Z,36.75
2017-10-16T09:33:54.015Z,36.73
2017-10-16T09:34:54.068Z,36.80
2017-10-16T09:35:54.119Z,36.91
2017-10-16T09:36:54.170Z,36.87
2017-10-16T09:37:54.222Z,36.84
2017-10-16T09:38:54.275Z,37.06
2017-10-16T09:39:54.328Z,37.06
2017-10-16T09:40:54.380Z,37.31
2017-10-16T09:41:54.432Z,37.29
2017-10-16T09:42:54.483Z,37.24
2017-10-16T09:43:54.539Z,37.36
2017-10-16T09:44:54.589Z,37.24
2017-10-16T09:45:54.641Z,37.17
2017-10-16T09:46:54.694Z,37.29
2017-10-16T09:47:54.752Z,37.47
2017-10-16T09:48:54.801Z,37.36
2017-10-16T09:49:54.853Z,37.57
2017-10-16T09:50:54.936Z,37.60
2017-10-16T09:51:54.959Z,37.64
2017-10-16T09:52:55.013Z,37.66
2017-10-16T09:53:55.065Z,37.75
2017-10-16T09:54:55.119Z,38.07
2017-10-16T09:55:55.173Z,38.04
2017-10-16T09:56:55.226Z,38.03
2017-10-16T09:57:55.278Z,38.32
2017-10-16T09:58:55.333Z,37.81
2017-10-16T09:59:55.386Z,37.96
2017-10-16T10:00:55.441Z,38.04
2017-10-16T10:01:55.495Z,38.16
2017-10-16T10:02:55.548Z,38.54
2017-10-16T10:03:55.601Z,38.54
2017-10-16T10:04:55.662Z,38.96
2017-10-16T10:05:55.708Z,39.11
2017-10-16T10:06:55.762Z,39.45
2017-10-16T10:07:55.818Z,39.54
2017-10-16T10:08:55.871Z,39.29
2017-10-16T10:09:55.925Z,39.63
2017-10-16T10:10:55.980Z,39.67
2017-10-16T10:11:56.039Z,39.64
2017-10-16T10:12:56.090Z,39.78
2017-10-16T10:13:56.142Z,39.32
2017-10-16T10:14:56.198Z,38.38
2017-10-16T10:15:56.252Z,38.18
2017-10-16T10:16:56.307Z,37.57
2017-10-16T10:17:56.362Z,36.72
2017-10-16T10:18:56.415Z,36.01
2017-10-16T10:19:56.471Z,35.77
2017-10-16T10:20:56.526Z,35.84
2017-10-16T10:21:56.579Z,35.97
2017-10-16T10:22:56.634Z,36.46
2017-10-16T10:23:56.696Z,36.17
2017-10-16T10:24:56.745Z,36.59
2017-10-16T10:25:56.799Z,36.72
2017-10-16T10:26:56.855Z,36.65
2017-10-16T10:27:56.910Z,36.68
2017-10-16T10:28:56.966Z,37.10
2017-10-16T10:29:57.020Z,37.29
2017-10-16T10:30:57.075Z,37.39
2017-10-16T10:31:57.131Z,37.47
2017-10-16T10:32:57.185Z,37.79
2017-10-16T10:33:57.240Z,37.55
2017-10-16T10:34:57.295Z,37.63
2017-10-16T10:35:57.350Z,37.88
2017-10-16T10:36:57.407Z,37.89
2017-10-16T10:37:57.461Z,38.11
2017-10-16T10:38:57.517Z,38.25
2017-10-16T10:39:57.571Z,38.15
2017-10-16T10:40:57.628Z,38.07
2017-10-16T10:41:57.682Z,38.22
2017-10-16T10:42:57.737Z,38.34
2017-10-16T10:43:57.794Z,37.93
2017-10-16T10:44:57.859Z,37.69
2017-10-16T10:45:57.903Z,37.82
2017-10-16T10:46:57.961Z,37.89
2017-10-16T10:47:58.016Z,38.38
2017-10-16T10:48:58.071Z,38.40
2017-10-16T10:49:58.126Z,37.82
2017-10-16T10:50:58.182Z,38.23
2017-10-16T10:51:58.239Z,38.03
2017-10-16T10:52:58.295Z,38.12
2017-10-16T10:53:58.349Z,38.40
2017-10-16T10:54:58.405Z,38.54
2017-10-16T10:55:58.461Z,38.72
2017-10-16T10:56:58.523Z,38.91
2017-10-16T10:57:58.574Z,38.91
2017-10-16T10:58:58.629Z,38.69
2017-10-16T10:59:58.688Z,38.60
2017-10-16T11:00:58.746Z,38.16
2017-10-16T11:01:58.796Z,38.41
2017-10-16T11:02:58.853Z,38.99
2017-10-16T11:03:58.910Z,38.95
2017-10-16T11:04:58.965Z,38.72
2017-10-16T11:05:59.024Z,38.87
2017-10-16T11:06:59.084Z,38.78
2017-10-16T11:07:59.134Z,39.30
2017-10-16T11:08:59.190Z,39.54
2017-10-16T11:09:59.246Z,39.62
2017-10-16T11:10:59.302Z,39.62
2017-10-16T11:11:59.357Z,39.26
2017-10-16T11:12:59.415Z,39.13
2017-10-16T11:13:59.473Z,39.47
2017-10-16T11:14:59.528Z,39.67
2017-10-16T11:15:59.585Z,39.51
2017-10-16T11:16:59.649Z,39.30
2017-10-16T11:17:59.698Z,39.10
2017-10-16T11:18:59.754Z,38.88
2017-10-16T11:19:59.811Z,38.41
2017-10-16T11:20:59.867Z,38.54
2017-10-16T11:21:59.922Z,38.83
2017-10-16T11:22:59.979Z,38.75
2017-10-16T11:24:00.037Z,38.41
2017-10-16T11:25:00.095Z,38.42
2017-10-16T11:26:00.163Z,38.60
2017-10-16T11:27:00.207Z,39.10
2017-10-16T11:28:00.264Z,38.74
2017-10-16T11:29:00.321Z,37.97
2017-10-16T11:30:00.378Z,37.49
2017-10-16T11:31:00.434Z,38.07
2017-10-16T11:32:00.492Z,37.60
2017-10-16T11:33:00.550Z,37.17
2017-10-16T11:34:00.605Z,37.29
2017-10-16T11:35:00.663Z,37.64
2017-10-16T11:36:00.719Z,38.01
2017-10-16T11:37:00.778Z,38.16
2017-10-16T11:38:00.834Z,38.44
2017-10-16T11:39:00.891Z,38.47
2017-10-16T11:40:00.949Z,38.93
2017-10-16T11:41:01.006Z,38.59
2017-10-16T11:42:01.063Z,39.30
2017-10-16T11:43:01.120Z,39.29
2017-10-16T11:44:01.177Z,39.32
2017-10-16T11:45:01.238Z,39.40
2017-10-16T11:46:01.292Z,39.52
2017-10-16T11:47:01.350Z,38.74
2017-10-16T11:48:01.406Z,38.78
2017-10-16T11:49:01.464Z,38.75
2017-10-16T11:50:01.520Z,39.18
2017-10-16T11:51:01.580Z,39.07
2017-10-16T11:52:01.635Z,39.48
2017-10-16T11:53:01.694Z,39.30
2017-10-16T11:54:01.750Z,39.70
2017-10-16T11:55:01.809Z,40.23
2017-10-16T11:56:01.866Z,40.32
2017-10-16T11:57:01.923Z,39.86
2017-10-16T11:58:01.979Z,39.85
2017-10-16T11:59:02.038Z,39.98
2017-10-16T12:00:02.094Z,39.89
2017-10-16T12:01:02.151Z,39.63
2017-10-16T12:02:02.207Z,39.10
2017-10-16T12:03:02.265Z,39.73
2017-10-16T12:04:02.324Z,39.86
2017-10-16T12:05:02.382Z,40.16
2017-10-16T12:06:02.438Z,40.18
2017-10-16T12:07:02.498Z,39.59
2017-10-16T12:08:02.552Z,39.07
2017-10-16T12:09:02.610Z,38.83
2017-10-16T12:10:02.666Z,38.46
2017-10-16T12:11:02.731Z,38.98
2017-10-16T12:12:02.782Z,39.62
2017-10-16T12:13:02.839Z,39.91
2017-10-16T12:14:02.896Z,40.34
2017-10-16T12:15:02.955Z,40.96
2017-10-16T12:16:03.011Z,41.48
2017-10-16T12:17:03.070Z,42.02
2017-10-16T12:18:03.126Z,42.35
2017-10-16T12:19:03.184Z,42.37
2017-10-16T12:20:03.242Z,41.98
2017-10-16T12:21:03.299Z,42.36
2017-10-16T12:22:03.358Z,42.84
2017-10-16T12:23:03.414Z,42.87
2017-10-16T12:24:03.472Z,43.22
2017-10-16T12:25:03.531Z,43.37
2017-10-16T12:26:03.587Z,43.42
2017-10-16T12:27:03.646Z,43.53
2017-10-16T12:28:03.707Z,43.81
2017-10-16T12:29:03.762Z,43.33
2017-10-16T12:30:03.820Z,42.96
2017-10-16T12:31:03.878Z,42.59
2017-10-16T12:32:03.935Z,41.93
2017-10-16T12:33:03.996Z,41.89
2017-10-16T12:34:04.053Z,40.99
2017-10-16T12:35:04.108Z,41.26
2017-10-16T12:36:04.169Z,41.01
2017-10-16T12:37:04.227Z,41.17
2017-10-16T12:38:04.284Z,40.96
2017-10-16T12:39:04.345Z,40.94
2017-10-16T12:40:04.402Z,41.06
2017-10-16T12:41:04.460Z,40.83
2017-10-16T12:42:04.519Z,40.60
2017-10-16T12:43:04.576Z,40.65
2017-10-16T12:44:04.637Z,40.77
2017-10-16T12:45:04.700Z,41.63
2017-10-16T12:46:04.752Z,42.09
2017-10-16T12:47:04.812Z,42.27
2017-10-16T12:48:04.871Z,42.54
2017-10-16T12:49:04.929Z,42.74
2017-10-16T12:50:04.987Z,42.66
2017-10-16T12:51:05.048Z,42.49
2017-10-16T12:52:05.105Z,41.94
2017-10-16T12:53:05.164Z,41.11
2017-10-16T12:54:05.222Z,40.73
2017-10-16T12:55:05.280Z,40.43
2017-10-16T12:56:05.339Z,40.22
2017-10-16T12:57:05.411Z,40.10
2017-10-16T12:58:05.455Z,39.69
2017-10-16T12:59:05.517Z,39.40
2017-10-16T13:00:05.575Z,39.79
2017-10-16T13:01:05.781Z,40.39
2017-10-16T13:02:05.689Z,41.16